sensor_id;sensor_type;location;lat;lon;timestamp;P1;durP1;ratioP1;P2;durP2;ratioP2
78610;SDS011;67932;50.474;4.436;2023-06-04T00:02:06;3.88;;;0.60;;
78610;SDS011;67932;50.474;4.436;2023-06-04T00:04:32;1.30;;;0.52;;
78610;SDS011;67932;50.474;4.436;2023-06-04T00:06:58;2.60;;;0.50;;
78610;SDS011;67932;50.474;4.436;2023-06-04T00:09:24;1.15;;;0.70;;
78610;SDS011;67932;50.474;4.436;2023-06-04T00:11:50;2.60;;;0.80;;
78610;SDS011;67932;50.474;4.436;2023-06-04T00:14:17;1.30;;;0.85;;
78610;SDS011;67932;50.474;4.436;2023-06-04T00:16:43;3.28;;;0.60;;
78610;SDS011;67932;50.474;4.436;2023-06-04T00:19:09;1.75;;;0.93;;
78610;SDS011;67932;50.474;4.436;2023-06-04T00:21:36;1.75;;;0.80;;
78610;SDS011;67932;50.474;4.436;2023-06-04T00:24:02;2.30;;;0.80;;
78610;SDS011;67932;50.474;4.436;2023-06-04T00:26:28;1.67;;;0.77;;
78610;SDS011;67932;50.474;4.436;2023-06-04T00:28:55;1.10;;;0.70;;
78610;SDS011;67932;50.474;4.436;2023-06-04T00:31:21;2.25;;;0.60;;
78610;SDS011;67932;50.474;4.436;2023-06-04T00:33:47;3.53;;;0.73;;
78610;SDS011;67932;50.474;4.436;2023-06-04T00:36:14;1.88;;;0.60;;
78610;SDS011;67932;50.474;4.436;2023-06-04T00:38:40;1.80;;;0.70;;
78610;SDS011;67932;50.474;4.436;2023-06-04T00:41:06;1.83;;;0.70;;
78610;SDS011;67932;50.474;4.436;2023-06-04T00:43:33;1.20;;;0.70;;
78610;SDS011;67932;50.474;4.436;2023-06-04T00:46:00;2.03;;;0.90;;
78610;SDS011;67932;50.474;4.436;2023-06-04T00:48:30;2.63;;;0.77;;
78610;SDS011;67932;50.474;4.436;2023-06-04T00:50:57;1.60;;;0.68;;
78610;SDS011;67932;50.474;4.436;2023-06-04T00:53:23;1.75;;;0.60;;
78610;SDS011;67932;50.474;4.436;2023-06-04T00:55:50;2.20;;;0.75;;
78610;SDS011;67932;50.474;4.436;2023-06-04T00:58:17;2.30;;;0.90;;
78610;SDS011;67932;50.474;4.436;2023-06-04T01:00:43;1.15;;;0.65;;
78610;SDS011;67932;50.474;4.436;2023-06-04T01:03:11;1.00;;;0.60;;
78610;SDS011;67932;50.474;4.436;2023-06-04T01:08:31;2.03;;;0.60;;
78610;SDS011;67932;50.474;4.436;2023-06-04T01:10:58;2.47;;;0.95;;
78610;SDS011;67932;50.474;4.436;2023-06-04T01:13:24;1.00;;;0.90;;
78610;SDS011;67932;50.474;4.436;2023-06-04T01:15:50;2.33;;;0.95;;
78610;SDS011;67932;50.474;4.436;2023-06-04T01:18:21;1.67;;;0.70;;
78610;SDS011;67932;50.474;4.436;2023-06-04T01:20:58;0.85;;;0.55;;
78610;SDS011;67932;50.474;4.436;2023-06-04T01:26:14;1.17;;;0.70;;
78610;SDS011;67932;50.474;4.436;2023-06-04T01:28:41;1.02;;;0.60;;
78610;SDS011;67932;50.474;4.436;2023-06-04T01:31:08;1.92;;;0.70;;
78610;SDS011;67932;50.474;4.436;2023-06-04T01:33:35;1.10;;;0.70;;
78610;SDS011;67932;50.474;4.436;2023-06-04T01:36:02;3.05;;;0.93;;
78610;SDS011;67932;50.474;4.436;2023-06-04T01:38:28;2.30;;;0.88;;
78610;SDS011;67932;50.474;4.436;2023-06-04T01:40:55;1.17;;;0.57;;
78610;SDS011;67932;50.474;4.436;2023-06-04T01:43:25;1.70;;;0.80;;
78610;SDS011;67932;50.474;4.436;2023-06-04T01:45:53;2.00;;;0.80;;
78610;SDS011;67932;50.474;4.436;2023-06-04T01:48:21;1.05;;;0.55;;
78610;SDS011;67932;50.474;4.436;2023-06-04T01:50:47;2.38;;;0.73;;
78610;SDS011;67932;50.474;4.436;2023-06-04T01:53:14;2.28;;;0.80;;
78610;SDS011;67932;50.474;4.436;2023-06-04T01:55:40;1.73;;;0.82;;
78610;SDS011;67932;50.474;4.436;2023-06-04T01:58:07;4.88;;;0.93;;
78610;SDS011;67932;50.474;4.436;2023-06-04T02:00:34;2.20;;;0.70;;
78610;SDS011;67932;50.474;4.436;2023-06-04T02:03:00;1.05;;;0.63;;
78610;SDS011;67932;50.474;4.436;2023-06-04T02:05:26;2.80;;;1.10;;
78610;SDS011;67932;50.474;4.436;2023-06-04T02:07:53;2.67;;;0.63;;
78610;SDS011;67932;50.474;4.436;2023-06-04T02:10:19;1.80;;;0.70;;
78610;SDS011;67932;50.474;4.436;2023-06-04T02:12:58;1.80;;;0.63;;
78610;SDS011;67932;50.474;4.436;2023-06-04T02:15:27;1.38;;;0.70;;
78610;SDS011;67932;50.474;4.436;2023-06-04T02:17:56;1.50;;;0.70;;
78610;SDS011;67932;50.474;4.436;2023-06-04T02:20:24;2.67;;;0.90;;
78610;SDS011;67932;50.474;4.436;2023-06-04T02:22:54;2.13;;;0.82;;
78610;SDS011;67932;50.474;4.436;2023-06-04T02:25:21;3.38;;;0.90;;
78610;SDS011;67932;50.474;4.436;2023-06-04T02:27:47;2.22;;;0.90;;
78610;SDS011;67932;50.474;4.436;2023-06-04T02:30:14;1.73;;;0.70;;
78610;SDS011;67932;50.474;4.436;2023-06-04T02:32:42;3.65;;;0.80;;
78610;SDS011;67932;50.474;4.436;2023-06-04T02:35:09;3.47;;;0.70;;
78610;SDS011;67932;50.474;4.436;2023-06-04T02:37:36;2.05;;;0.80;;
78610;SDS011;67932;50.474;4.436;2023-06-04T02:40:02;1.30;;;0.82;;
78610;SDS011;67932;50.474;4.436;2023-06-04T02:42:29;3.30;;;0.80;;
78610;SDS011;67932;50.474;4.436;2023-06-04T02:44:55;3.05;;;1.00;;
78610;SDS011;67932;50.474;4.436;2023-06-04T02:47:21;3.03;;;1.30;;
78610;SDS011;67932;50.474;4.436;2023-06-04T02:49:47;1.50;;;0.70;;
78610;SDS011;67932;50.474;4.436;2023-06-04T02:52:14;1.70;;;0.88;;
78610;SDS011;67932;50.474;4.436;2023-06-04T02:54:40;1.98;;;0.93;;
78610;SDS011;67932;50.474;4.436;2023-06-04T02:57:06;1.33;;;0.90;;
78610;SDS011;67932;50.474;4.436;2023-06-04T02:59:33;1.30;;;0.80;;
78610;SDS011;67932;50.474;4.436;2023-06-04T03:02:01;4.43;;;1.02;;
78610;SDS011;67932;50.474;4.436;2023-06-04T03:04:29;2.60;;;1.00;;
78610;SDS011;67932;50.474;4.436;2023-06-04T03:07:00;1.92;;;1.45;;
78610;SDS011;67932;50.474;4.436;2023-06-04T03:09:27;3.20;;;1.00;;
78610;SDS011;67932;50.474;4.436;2023-06-04T03:11:57;4.03;;;1.30;;
78610;SDS011;67932;50.474;4.436;2023-06-04T03:14:29;2.17;;;1.13;;
78610;SDS011;67932;50.474;4.436;2023-06-04T03:17:00;5.40;;;0.90;;
78610;SDS011;67932;50.474;4.436;2023-06-04T03:19:39;2.67;;;1.00;;
78610;SDS011;67932;50.474;4.436;2023-06-04T03:22:07;6.53;;;1.17;;
78610;SDS011;67932;50.474;4.436;2023-06-04T03:24:36;2.85;;;0.90;;
78610;SDS011;67932;50.474;4.436;2023-06-04T03:27:04;2.33;;;1.30;;
78610;SDS011;67932;50.474;4.436;2023-06-04T03:29:32;2.05;;;0.95;;
78610;SDS011;67932;50.474;4.436;2023-06-04T03:31:59;1.70;;;1.10;;
78610;SDS011;67932;50.474;4.436;2023-06-04T03:34:26;2.75;;;0.98;;
78610;SDS011;67932;50.474;4.436;2023-06-04T03:36:53;3.30;;;0.90;;
78610;SDS011;67932;50.474;4.436;2023-06-04T03:39:20;2.40;;;0.95;;
78610;SDS011;67932;50.474;4.436;2023-06-04T03:41:46;1.75;;;1.30;;
78610;SDS011;67932;50.474;4.436;2023-06-04T03:44:13;2.30;;;1.00;;
78610;SDS011;67932;50.474;4.436;2023-06-04T03:46:40;3.15;;;1.10;;
78610;SDS011;67932;50.474;4.436;2023-06-04T03:49:08;5.85;;;1.10;;
78610;SDS011;67932;50.474;4.436;2023-06-04T03:51:35;2.47;;;0.98;;
78610;SDS011;67932;50.474;4.436;2023-06-04T03:54:02;1.75;;;1.10;;
78610;SDS011;67932;50.474;4.436;2023-06-04T03:56:28;2.88;;;1.20;;
78610;SDS011;67932;50.474;4.436;2023-06-04T03:58:55;6.30;;;1.75;;
78610;SDS011;67932;50.474;4.436;2023-06-04T04:01:22;2.38;;;1.00;;
78610;SDS011;67932;50.474;4.436;2023-06-04T04:03:48;3.38;;;1.42;;
78610;SDS011;67932;50.474;4.436;2023-06-04T04:06:16;3.90;;;1.20;;
78610;SDS011;67932;50.474;4.436;2023-06-04T04:08:42;2.05;;;1.20;;
78610;SDS011;67932;50.474;4.436;2023-06-04T04:11:09;2.72;;;0.98;;
78610;SDS011;67932;50.474;4.436;2023-06-04T04:13:39;4.60;;;1.02;;
78610;SDS011;67932;50.474;4.436;2023-06-04T04:16:06;2.45;;;1.13;;
78610;SDS011;67932;50.474;4.436;2023-06-04T04:18:33;1.77;;;1.15;;
78610;SDS011;67932;50.474;4.436;2023-06-04T04:21:00;2.17;;;1.00;;
78610;SDS011;67932;50.474;4.436;2023-06-04T04:23:27;3.50;;;1.20;;
78610;SDS011;67932;50.474;4.436;2023-06-04T04:25:55;3.33;;;1.50;;
78610;SDS011;67932;50.474;4.436;2023-06-04T04:28:23;1.77;;;1.17;;
78610;SDS011;67932;50.474;4.436;2023-06-04T04:30:53;2.72;;;1.60;;
78610;SDS011;67932;50.474;4.436;2023-06-04T04:33:21;1.98;;;1.40;;
78610;SDS011;67932;50.474;4.436;2023-06-04T04:35:49;3.25;;;1.25;;
78610;SDS011;67932;50.474;4.436;2023-06-04T04:38:17;2.25;;;1.30;;
78610;SDS011;67932;50.474;4.436;2023-06-04T04:40:49;2.78;;;1.67;;
78610;SDS011;67932;50.474;4.436;2023-06-04T04:43:19;3.33;;;1.40;;
78610;SDS011;67932;50.474;4.436;2023-06-04T04:45:58;4.53;;;1.92;;
78610;SDS011;67932;50.474;4.436;2023-06-04T04:48:24;4.30;;;1.58;;
78610;SDS011;67932;50.474;4.436;2023-06-04T04:50:52;3.38;;;1.67;;
78610;SDS011;67932;50.474;4.436;2023-06-04T04:53:19;3.22;;;1.30;;
78610;SDS011;67932;50.474;4.436;2023-06-04T04:55:46;2.17;;;1.30;;
78610;SDS011;67932;50.474;4.436;2023-06-04T04:58:12;1.88;;;1.33;;
78610;SDS011;67932;50.474;4.436;2023-06-04T05:00:40;2.65;;;1.30;;
78610;SDS011;67932;50.474;4.436;2023-06-04T05:03:06;3.70;;;1.20;;
78610;SDS011;67932;50.474;4.436;2023-06-04T05:05:32;1.95;;;1.50;;
78610;SDS011;67932;50.474;4.436;2023-06-04T05:07:59;3.35;;;1.30;;
78610;SDS011;67932;50.474;4.436;2023-06-04T05:10:25;2.95;;;1.20;;
78610;SDS011;67932;50.474;4.436;2023-06-04T05:12:56;4.25;;;1.60;;
78610;SDS011;67932;50.474;4.436;2023-06-04T05:15:25;2.83;;;1.40;;
78610;SDS011;67932;50.474;4.436;2023-06-04T05:17:51;3.65;;;1.50;;
78610;SDS011;67932;50.474;4.436;2023-06-04T05:20:21;2.72;;;1.42;;
78610;SDS011;67932;50.474;4.436;2023-06-04T05:22:48;2.83;;;2.00;;
78610;SDS011;67932;50.474;4.436;2023-06-04T05:25:16;3.17;;;1.77;;
78610;SDS011;67932;50.474;4.436;2023-06-04T05:27:42;7.25;;;2.17;;
78610;SDS011;67932;50.474;4.436;2023-06-04T05:30:09;2.88;;;1.20;;
78610;SDS011;67932;50.474;4.436;2023-06-04T05:32:36;3.05;;;2.35;;
78610;SDS011;67932;50.474;4.436;2023-06-04T05:35:05;2.72;;;1.60;;
78610;SDS011;67932;50.474;4.436;2023-06-04T05:37:33;3.38;;;1.33;;
78610;SDS011;67932;50.474;4.436;2023-06-04T05:40:00;3.65;;;1.70;;
78610;SDS011;67932;50.474;4.436;2023-06-04T05:42:30;5.03;;;2.30;;
78610;SDS011;67932;50.474;4.436;2023-06-04T05:44:57;3.47;;;1.38;;
78610;SDS011;67932;50.474;4.436;2023-06-04T05:47:23;4.47;;;2.00;;
78610;SDS011;67932;50.474;4.436;2023-06-04T05:49:49;1.88;;;1.70;;
78610;SDS011;67932;50.474;4.436;2023-06-04T05:52:16;4.03;;;1.73;;
78610;SDS011;67932;50.474;4.436;2023-06-04T05:54:42;2.25;;;1.48;;
78610;SDS011;67932;50.474;4.436;2023-06-04T05:57:08;2.65;;;1.75;;
78610;SDS011;67932;50.474;4.436;2023-06-04T05:59:35;3.67;;;1.80;;
78610;SDS011;67932;50.474;4.436;2023-06-04T06:02:01;2.33;;;1.70;;
78610;SDS011;67932;50.474;4.436;2023-06-04T06:04:27;4.55;;;1.90;;
78610;SDS011;67932;50.474;4.436;2023-06-04T06:06:53;5.05;;;2.17;;
78610;SDS011;67932;50.474;4.436;2023-06-04T06:09:20;2.95;;;1.63;;
78610;SDS011;67932;50.474;4.436;2023-06-04T06:11:46;3.28;;;1.60;;
78610;SDS011;67932;50.474;4.436;2023-06-04T06:14:13;3.03;;;2.00;;
78610;SDS011;67932;50.474;4.436;2023-06-04T06:16:40;3.88;;;2.28;;
78610;SDS011;67932;50.474;4.436;2023-06-04T06:19:06;3.63;;;1.75;;
78610;SDS011;67932;50.474;4.436;2023-06-04T06:21:32;4.80;;;1.90;;
78610;SDS011;67932;50.474;4.436;2023-06-04T06:23:58;3.78;;;2.00;;
78610;SDS011;67932;50.474;4.436;2023-06-04T06:26:25;3.35;;;1.67;;
78610;SDS011;67932;50.474;4.436;2023-06-04T06:28:51;4.63;;;2.15;;
78610;SDS011;67932;50.474;4.436;2023-06-04T06:31:17;3.28;;;2.00;;
78610;SDS011;67932;50.474;4.436;2023-06-04T06:33:43;3.22;;;1.52;;
78610;SDS011;67932;50.474;4.436;2023-06-04T06:36:10;2.28;;;1.75;;
78610;SDS011;67932;50.474;4.436;2023-06-04T06:38:43;2.42;;;1.73;;
78610;SDS011;67932;50.474;4.436;2023-06-04T06:41:12;2.72;;;1.83;;
78610;SDS011;67932;50.474;4.436;2023-06-04T06:43:39;3.72;;;1.63;;
78610;SDS011;67932;50.474;4.436;2023-06-04T06:46:05;1.90;;;1.30;;
78610;SDS011;67932;50.474;4.436;2023-06-04T06:48:31;5.50;;;2.20;;
78610;SDS011;67932;50.474;4.436;2023-06-04T06:50:59;12.70;;;2.17;;
78610;SDS011;67932;50.474;4.436;2023-06-04T06:53:26;3.88;;;1.70;;
78610;SDS011;67932;50.474;4.436;2023-06-04T06:55:52;3.22;;;1.88;;
78610;SDS011;67932;50.474;4.436;2023-06-04T06:58:18;2.97;;;1.70;;
78610;SDS011;67932;50.474;4.436;2023-06-04T07:00:44;4.47;;;1.95;;
78610;SDS011;67932;50.474;4.436;2023-06-04T07:03:11;2.50;;;1.50;;
78610;SDS011;67932;50.474;4.436;2023-06-04T07:05:37;2.22;;;1.70;;
78610;SDS011;67932;50.474;4.436;2023-06-04T07:08:03;7.45;;;2.05;;
78610;SDS011;67932;50.474;4.436;2023-06-04T07:10:30;3.83;;;1.92;;
78610;SDS011;67932;50.474;4.436;2023-06-04T07:12:56;3.63;;;1.70;;
78610;SDS011;67932;50.474;4.436;2023-06-04T07:15:22;3.25;;;1.70;;
78610;SDS011;67932;50.474;4.436;2023-06-04T07:17:49;2.88;;;1.63;;
78610;SDS011;67932;50.474;4.436;2023-06-04T07:20:15;4.25;;;2.13;;
78610;SDS011;67932;50.474;4.436;2023-06-04T07:22:41;3.58;;;1.40;;
78610;SDS011;67932;50.474;4.436;2023-06-04T07:25:08;4.80;;;1.70;;
78610;SDS011;67932;50.474;4.436;2023-06-04T07:27:34;2.95;;;1.77;;
78610;SDS011;67932;50.474;4.436;2023-06-04T07:30:00;5.20;;;2.00;;
78610;SDS011;67932;50.474;4.436;2023-06-04T07:32:27;3.05;;;1.60;;
78610;SDS011;67932;50.474;4.436;2023-06-04T07:34:53;3.72;;;1.60;;
78610;SDS011;67932;50.474;4.436;2023-06-04T07:37:19;3.10;;;1.45;;
78610;SDS011;67932;50.474;4.436;2023-06-04T07:39:46;2.95;;;1.50;;
78610;SDS011;67932;50.474;4.436;2023-06-04T07:42:13;4.47;;;1.40;;
78610;SDS011;67932;50.474;4.436;2023-06-04T07:44:39;4.18;;;1.58;;
78610;SDS011;67932;50.474;4.436;2023-06-04T07:47:06;8.55;;;2.42;;
78610;SDS011;67932;50.474;4.436;2023-06-04T07:49:32;2.22;;;1.48;;
78610;SDS011;67932;50.474;4.436;2023-06-04T07:51:58;3.47;;;1.40;;
78610;SDS011;67932;50.474;4.436;2023-06-04T07:54:25;3.80;;;1.75;;
78610;SDS011;67932;50.474;4.436;2023-06-04T07:56:51;5.35;;;1.90;;
78610;SDS011;67932;50.474;4.436;2023-06-04T07:59:21;2.28;;;1.45;;
78610;SDS011;67932;50.474;4.436;2023-06-04T08:01:49;2.45;;;1.58;;
78610;SDS011;67932;50.474;4.436;2023-06-04T08:04:16;3.95;;;1.83;;
78610;SDS011;67932;50.474;4.436;2023-06-04T08:06:43;2.97;;;1.40;;
78610;SDS011;67932;50.474;4.436;2023-06-04T08:09:10;3.00;;;1.75;;
78610;SDS011;67932;50.474;4.436;2023-06-04T08:11:36;4.93;;;1.67;;
78610;SDS011;67932;50.474;4.436;2023-06-04T08:14:04;2.47;;;1.60;;
78610;SDS011;67932;50.474;4.436;2023-06-04T08:16:31;2.90;;;1.48;;
78610;SDS011;67932;50.474;4.436;2023-06-04T08:18:58;4.43;;;1.73;;
78610;SDS011;67932;50.474;4.436;2023-06-04T08:21:27;2.08;;;1.55;;
78610;SDS011;67932;50.474;4.436;2023-06-04T08:23:55;2.05;;;1.48;;
78610;SDS011;67932;50.474;4.436;2023-06-04T08:26:22;2.72;;;1.45;;
78610;SDS011;67932;50.474;4.436;2023-06-04T08:28:48;9.02;;;1.90;;
78610;SDS011;67932;50.474;4.436;2023-06-04T08:31:16;7.47;;;1.90;;
78610;SDS011;67932;50.474;4.436;2023-06-04T08:33:42;2.28;;;1.33;;
78610;SDS011;67932;50.474;4.436;2023-06-04T08:36:10;3.65;;;1.90;;
78610;SDS011;67932;50.474;4.436;2023-06-04T08:38:36;3.53;;;1.42;;
78610;SDS011;67932;50.474;4.436;2023-06-04T08:41:06;2.28;;;1.30;;
78610;SDS011;67932;50.474;4.436;2023-06-04T08:43:35;3.47;;;1.63;;
78610;SDS011;67932;50.474;4.436;2023-06-04T08:46:04;3.17;;;1.50;;
78610;SDS011;67932;50.474;4.436;2023-06-04T08:48:34;4.65;;;2.20;;
78610;SDS011;67932;50.474;4.436;2023-06-04T08:51:01;3.17;;;1.40;;
78610;SDS011;67932;50.474;4.436;2023-06-04T08:53:30;3.67;;;1.55;;
78610;SDS011;67932;50.474;4.436;2023-06-04T08:55:57;5.45;;;1.63;;
78610;SDS011;67932;50.474;4.436;2023-06-04T08:58:24;4.28;;;1.45;;
78610;SDS011;67932;50.474;4.436;2023-06-04T09:00:52;3.65;;;1.60;;
78610;SDS011;67932;50.474;4.436;2023-06-04T09:03:19;3.20;;;1.27;;
78610;SDS011;67932;50.474;4.436;2023-06-04T09:05:47;4.38;;;1.40;;
78610;SDS011;67932;50.474;4.436;2023-06-04T09:08:16;4.53;;;1.60;;
78610;SDS011;67932;50.474;4.436;2023-06-04T09:10:44;6.18;;;1.30;;
78610;SDS011;67932;50.474;4.436;2023-06-04T09:13:18;2.67;;;1.30;;
78610;SDS011;67932;50.474;4.436;2023-06-04T09:15:57;2.22;;;1.35;;
78610;SDS011;67932;50.474;4.436;2023-06-04T09:18:27;2.60;;;1.40;;
78610;SDS011;67932;50.474;4.436;2023-06-04T09:26:09;2.13;;;1.45;;
78610;SDS011;67932;50.474;4.436;2023-06-04T09:28:42;5.90;;;1.60;;
78610;SDS011;67932;50.474;4.436;2023-06-04T09:31:10;4.30;;;1.73;;
78610;SDS011;67932;50.474;4.436;2023-06-04T09:33:49;2.25;;;0.95;;
78610;SDS011;67932;50.474;4.436;2023-06-04T09:36:16;2.85;;;1.85;;
78610;SDS011;67932;50.474;4.436;2023-06-04T09:38:42;4.22;;;1.30;;
78610;SDS011;67932;50.474;4.436;2023-06-04T09:41:12;1.95;;;1.05;;
78610;SDS011;67932;50.474;4.436;2023-06-04T09:43:40;2.80;;;1.25;;
78610;SDS011;67932;50.474;4.436;2023-06-04T09:46:10;2.53;;;1.50;;
78610;SDS011;67932;50.474;4.436;2023-06-04T09:48:37;2.92;;;1.20;;
78610;SDS011;67932;50.474;4.436;2023-06-04T09:51:11;4.53;;;1.40;;
78610;SDS011;67932;50.474;4.436;2023-06-04T09:53:43;2.35;;;1.20;;
78610;SDS011;67932;50.474;4.436;2023-06-04T09:56:20;2.75;;;1.15;;
78610;SDS011;67932;50.474;4.436;2023-06-04T09:58:48;3.20;;;1.50;;
78610;SDS011;67932;50.474;4.436;2023-06-04T10:01:18;4.07;;;1.10;;
78610;SDS011;67932;50.474;4.436;2023-06-04T10:03:47;2.95;;;1.30;;
78610;SDS011;67932;50.474;4.436;2023-06-04T10:06:15;3.42;;;1.25;;
78610;SDS011;67932;50.474;4.436;2023-06-04T10:08:43;3.22;;;1.05;;
78610;SDS011;67932;50.474;4.436;2023-06-04T10:11:13;2.53;;;1.05;;
78610;SDS011;67932;50.474;4.436;2023-06-04T10:13:45;2.22;;;0.95;;
78610;SDS011;67932;50.474;4.436;2023-06-04T10:16:18;2.22;;;1.02;;
78610;SDS011;67932;50.474;4.436;2023-06-04T10:18:46;3.22;;;1.25;;
78610;SDS011;67932;50.474;4.436;2023-06-04T10:21:14;2.67;;;1.10;;
78610;SDS011;67932;50.474;4.436;2023-06-04T10:23:43;2.75;;;1.08;;
78610;SDS011;67932;50.474;4.436;2023-06-04T10:26:13;1.63;;;0.90;;
78610;SDS011;67932;50.474;4.436;2023-06-04T10:28:40;4.57;;;0.95;;
78610;SDS011;67932;50.474;4.436;2023-06-04T10:31:11;1.77;;;1.02;;
78610;SDS011;67932;50.474;4.436;2023-06-04T10:33:38;2.78;;;1.08;;
78610;SDS011;67932;50.474;4.436;2023-06-04T10:36:17;4.03;;;0.93;;
78610;SDS011;67932;50.474;4.436;2023-06-04T10:38:49;2.63;;;1.05;;
78610;SDS011;67932;50.474;4.436;2023-06-04T10:41:17;3.35;;;1.10;;
78610;SDS011;67932;50.474;4.436;2023-06-04T10:43:46;4.93;;;1.10;;
78610;SDS011;67932;50.474;4.436;2023-06-04T10:46:17;2.40;;;1.00;;
78610;SDS011;67932;50.474;4.436;2023-06-04T10:48:45;1.88;;;0.90;;
78610;SDS011;67932;50.474;4.436;2023-06-04T10:51:16;3.67;;;1.30;;
78610;SDS011;67932;50.474;4.436;2023-06-04T10:53:55;2.22;;;1.20;;
78610;SDS011;67932;50.474;4.436;2023-06-04T10:56:26;2.58;;;1.15;;
78610;SDS011;67932;50.474;4.436;2023-06-04T10:58:53;2.28;;;1.05;;
78610;SDS011;67932;50.474;4.436;2023-06-04T11:01:23;2.95;;;1.45;;
78610;SDS011;67932;50.474;4.436;2023-06-04T11:03:54;2.92;;;1.40;;
78610;SDS011;67932;50.474;4.436;2023-06-04T11:06:21;2.97;;;1.30;;
78610;SDS011;67932;50.474;4.436;2023-06-04T11:08:47;2.08;;;1.40;;
78610;SDS011;67932;50.474;4.436;2023-06-04T11:11:14;5.72;;;1.50;;
78610;SDS011;67932;50.474;4.436;2023-06-04T11:13:41;2.00;;;1.20;;
78610;SDS011;67932;50.474;4.436;2023-06-04T11:16:15;2.28;;;1.00;;
78610;SDS011;67932;50.474;4.436;2023-06-04T11:18:55;4.78;;;1.60;;
78610;SDS011;67932;50.474;4.436;2023-06-04T11:21:23;1.42;;;1.00;;
78610;SDS011;67932;50.474;4.436;2023-06-04T11:23:59;1.67;;;1.00;;
78610;SDS011;67932;50.474;4.436;2023-06-04T11:26:36;2.50;;;1.30;;
78610;SDS011;67932;50.474;4.436;2023-06-04T11:29:07;2.45;;;1.20;;
78610;SDS011;67932;50.474;4.436;2023-06-04T11:31:47;2.47;;;1.08;;
78610;SDS011;67932;50.474;4.436;2023-06-04T11:34:26;2.10;;;1.20;;
78610;SDS011;67932;50.474;4.436;2023-06-04T11:36:53;5.05;;;1.08;;
78610;SDS011;67932;50.474;4.436;2023-06-04T11:39:20;3.60;;;1.30;;
78610;SDS011;67932;50.474;4.436;2023-06-04T11:41:48;2.55;;;1.30;;
78610;SDS011;67932;50.474;4.436;2023-06-04T11:44:18;2.03;;;0.90;;
78610;SDS011;67932;50.474;4.436;2023-06-04T11:46:46;2.63;;;1.30;;
78610;SDS011;67932;50.474;4.436;2023-06-04T11:49:17;1.20;;;0.88;;
78610;SDS011;67932;50.474;4.436;2023-06-04T11:51:47;2.75;;;1.13;;
78610;SDS011;67932;50.474;4.436;2023-06-04T11:56:42;2.45;;;1.30;;
78610;SDS011;67932;50.474;4.436;2023-06-04T11:59:15;3.42;;;1.10;;
78610;SDS011;67932;50.474;4.436;2023-06-04T12:01:42;2.25;;;1.17;;
78610;SDS011;67932;50.474;4.436;2023-06-04T12:04:13;1.77;;;1.05;;
78610;SDS011;67932;50.474;4.436;2023-06-04T12:06:53;2.92;;;1.35;;
78610;SDS011;67932;50.474;4.436;2023-06-04T12:09:25;2.33;;;1.10;;
78610;SDS011;67932;50.474;4.436;2023-06-04T12:11:57;2.30;;;1.00;;
78610;SDS011;67932;50.474;4.436;2023-06-04T12:14:25;1.33;;;0.98;;
78610;SDS011;67932;50.474;4.436;2023-06-04T12:19:25;2.53;;;0.98;;
78610;SDS011;67932;50.474;4.436;2023-06-04T12:22:02;2.92;;;1.23;;
78610;SDS011;67932;50.474;4.436;2023-06-04T12:24:34;3.78;;;1.30;;
78610;SDS011;67932;50.474;4.436;2023-06-04T12:27:14;2.63;;;1.08;;
78610;SDS011;67932;50.474;4.436;2023-06-04T12:29:41;2.65;;;1.02;;
78610;SDS011;67932;50.474;4.436;2023-06-04T12:32:08;2.17;;;1.02;;
78610;SDS011;67932;50.474;4.436;2023-06-04T12:34:38;4.70;;;1.27;;
78610;SDS011;67932;50.474;4.436;2023-06-04T12:37:07;3.22;;;1.20;;
78610;SDS011;67932;50.474;4.436;2023-06-04T12:39:34;3.90;;;1.10;;
78610;SDS011;67932;50.474;4.436;2023-06-04T12:42:02;5.35;;;1.13;;
78610;SDS011;67932;50.474;4.436;2023-06-04T12:44:30;4.72;;;1.27;;
78610;SDS011;67932;50.474;4.436;2023-06-04T12:46:56;3.25;;;2.28;;
78610;SDS011;67932;50.474;4.436;2023-06-04T12:49:22;3.05;;;1.15;;
78610;SDS011;67932;50.474;4.436;2023-06-04T12:51:50;3.00;;;1.20;;
78610;SDS011;67932;50.474;4.436;2023-06-04T12:54:17;3.33;;;1.40;;
78610;SDS011;67932;50.474;4.436;2023-06-04T12:56:44;2.22;;;1.30;;
78610;SDS011;67932;50.474;4.436;2023-06-04T12:59:10;1.67;;;1.02;;
78610;SDS011;67932;50.474;4.436;2023-06-04T13:01:36;2.95;;;1.30;;
78610;SDS011;67932;50.474;4.436;2023-06-04T13:04:03;3.22;;;1.38;;
78610;SDS011;67932;50.474;4.436;2023-06-04T13:06:30;4.18;;;1.58;;
78610;SDS011;67932;50.474;4.436;2023-06-04T13:08:58;4.70;;;1.88;;
78610;SDS011;67932;50.474;4.436;2023-06-04T13:11:25;2.53;;;1.40;;
78610;SDS011;67932;50.474;4.436;2023-06-04T13:13:51;3.90;;;1.77;;
78610;SDS011;67932;50.474;4.436;2023-06-04T13:16:17;2.17;;;1.27;;
78610;SDS011;67932;50.474;4.436;2023-06-04T13:18:43;3.72;;;1.40;;
78610;SDS011;67932;50.474;4.436;2023-06-04T13:21:10;4.13;;;1.77;;
78610;SDS011;67932;50.474;4.436;2023-06-04T13:23:36;4.43;;;1.55;;
78610;SDS011;67932;50.474;4.436;2023-06-04T13:26:02;3.42;;;1.65;;
78610;SDS011;67932;50.474;4.436;2023-06-04T13:28:29;2.53;;;1.58;;
78610;SDS011;67932;50.474;4.436;2023-06-04T13:30:55;2.63;;;1.80;;
78610;SDS011;67932;50.474;4.436;2023-06-04T13:33:21;5.38;;;1.67;;
78610;SDS011;67932;50.474;4.436;2023-06-04T13:35:48;4.07;;;1.33;;
78610;SDS011;67932;50.474;4.436;2023-06-04T13:38:15;3.00;;;1.17;;
78610;SDS011;67932;50.474;4.436;2023-06-04T13:40:41;5.25;;;1.50;;
78610;SDS011;67932;50.474;4.436;2023-06-04T13:43:09;3.22;;;1.50;;
78610;SDS011;67932;50.474;4.436;2023-06-04T13:45:36;2.85;;;1.25;;
78610;SDS011;67932;50.474;4.436;2023-06-04T13:48:02;2.63;;;1.30;;
78610;SDS011;67932;50.474;4.436;2023-06-04T13:50:32;3.03;;;1.27;;
78610;SDS011;67932;50.474;4.436;2023-06-04T13:52:58;4.13;;;1.20;;
78610;SDS011;67932;50.474;4.436;2023-06-04T13:55:24;3.22;;;1.52;;
78610;SDS011;67932;50.474;4.436;2023-06-04T13:57:51;2.33;;;1.48;;
78610;SDS011;67932;50.474;4.436;2023-06-04T14:00:17;4.15;;;1.92;;
78610;SDS011;67932;50.474;4.436;2023-06-04T14:02:46;2.60;;;1.63;;
78610;SDS011;67932;50.474;4.436;2023-06-04T14:05:13;3.25;;;1.52;;
78610;SDS011;67932;50.474;4.436;2023-06-04T14:07:43;3.13;;;1.50;;
78610;SDS011;67932;50.474;4.436;2023-06-04T14:10:10;3.92;;;1.50;;
78610;SDS011;67932;50.474;4.436;2023-06-04T14:12:38;2.72;;;1.58;;
78610;SDS011;67932;50.474;4.436;2023-06-04T14:15:06;2.08;;;1.58;;
78610;SDS011;67932;50.474;4.436;2023-06-04T14:17:36;6.15;;;1.83;;
78610;SDS011;67932;50.474;4.436;2023-06-04T14:20:03;3.08;;;1.30;;
78610;SDS011;67932;50.474;4.436;2023-06-04T14:22:34;5.43;;;2.00;;
78610;SDS011;67932;50.474;4.436;2023-06-04T14:25:04;2.88;;;1.80;;
78610;SDS011;67932;50.474;4.436;2023-06-04T14:27:31;5.40;;;1.63;;
78610;SDS011;67932;50.474;4.436;2023-06-04T14:29:59;6.05;;;1.88;;
78610;SDS011;67932;50.474;4.436;2023-06-04T14:32:29;4.25;;;1.65;;
78610;SDS011;67932;50.474;4.436;2023-06-04T14:34:55;4.70;;;2.10;;
78610;SDS011;67932;50.474;4.436;2023-06-04T14:37:22;4.47;;;2.22;;
78610;SDS011;67932;50.474;4.436;2023-06-04T14:39:49;2.08;;;1.52;;
78610;SDS011;67932;50.474;4.436;2023-06-04T14:42:15;2.17;;;1.75;;
78610;SDS011;67932;50.474;4.436;2023-06-04T14:44:44;2.55;;;1.88;;
78610;SDS011;67932;50.474;4.436;2023-06-04T14:47:11;3.55;;;1.73;;
78610;SDS011;67932;50.474;4.436;2023-06-04T14:49:37;3.28;;;1.95;;
78610;SDS011;67932;50.474;4.436;2023-06-04T14:52:04;4.72;;;1.95;;
78610;SDS011;67932;50.474;4.436;2023-06-04T14:54:30;4.57;;;2.05;;
78610;SDS011;67932;50.474;4.436;2023-06-04T14:56:57;11.85;;;4.82;;
78610;SDS011;67932;50.474;4.436;2023-06-04T14:59:24;5.72;;;2.95;;
78610;SDS011;67932;50.474;4.436;2023-06-04T15:01:50;3.92;;;1.90;;
78610;SDS011;67932;50.474;4.436;2023-06-04T15:04:19;3.17;;;1.50;;
78610;SDS011;67932;50.474;4.436;2023-06-04T15:06:45;3.53;;;1.42;;
78610;SDS011;67932;50.474;4.436;2023-06-04T15:09:12;3.65;;;1.48;;